Time;durP1;ratioP1;P1;durP2;ratioP2;P2;SDS_P1;SDS_P2;PMS_P1;PMS_P2;Temp;Humidity;BMP_temperature;BMP_pressure;BME280_temperature;BME280_humidity;BME280_pressure;Samples;Min_cycle;Max_cycle;Signal;HPM_P1;HPM_P2
2022/11/04 00:01:50;;;;;;;24.42;18.45;;;11.60;99.90;;;;;;4874276;29;20101;-83
2022/11/04 00:04:18;;;;;;;29.38;18.88;;;11.40;99.90;;;;;;4890674;29;20125;-83
2022/11/04 00:06:44;;;;;;;24.45;17.98;;;11.30;99.90;;;;;;4875096;29;20053;-83
2022/11/04 00:09:14;;;;;;;20.50;17.15;;;11.40;99.90;;;;;;4875335;29;20516;-85
2022/11/04 00:14:31;;;;;;;26.75;18.50;;;11.30;99.90;;;;;;4875149;29;20113;-85
2022/11/04 00:34:09;;;;;;;20.10;15.88;;;11.30;99.90;;;;;;4873959;29;20490;-85
2022/11/04 00:36:35;;;;;;;20.40;14.95;;;11.20;99.90;;;;;;4859273;29;20132;-84
2022/11/04 00:39:09;;;;;;;19.17;14.93;;;11.30;99.90;;;;;;4858755;29;20050;-85
2022/11/04 00:41:47;;;;;;;22.65;14.85;;;11.40;99.90;;;;;;4858787;29;20060;-84
2022/11/04 00:44:15;;;;;;;20.50;15.82;;;11.20;99.90;;;;;;4874583;29;20137;-85
2022/11/04 00:46:50;;;;;;;15.75;12.52;;;11.20;99.90;;;;;;4858755;29;20052;-85
2022/11/04 00:49:18;;;;;;;13.48;9.27;;;10.90;99.90;;;;;;4873958;29;20489;-84
2022/11/04 00:51:54;;;;;;;13.68;10.57;;;11.30;99.90;;;;;;4873051;29;20048;-85
2022/11/04 00:54:25;;;;;;;10.50;8.18;;;11.20;99.90;;;;;;4859070;29;20052;-85
2022/11/04 00:56:57;;;;;;;10.07;6.60;;;11.20;99.90;;;;;;4874083;29;20109;-84
2022/11/04 00:59:32;;;;;;;6.78;4.00;;;11.40;99.90;;;;;;4873611;29;20048;-85
2022/11/04 01:02:02;;;;;;;4.72;3.15;;;11.10;99.90;;;;;;4858224;29;20136;-85
2022/11/04 01:04:34;;;;;;;4.35;2.55;;;11.00;99.90;;;;;;4873339;29;20049;-84
2022/11/04 01:07:08;;;;;;;4.35;2.00;;;11.00;99.90;;;;;;4857656;29;20510;-84
2022/11/04 01:09:40;;;;;;;2.72;1.50;;;10.80;99.90;;;;;;4873856;29;20045;-85
2022/11/04 01:12:16;;;;;;;4.50;1.35;;;10.80;99.90;;;;;;4873783;29;20362;-83
2022/11/04 01:14:42;;;;;;;3.53;0.95;;;10.80;99.90;;;;;;4857754;29;20048;-85
2022/11/04 01:17:11;;;;;;;3.10;0.98;;;10.60;99.90;;;;;;4858973;29;20082;-84
2022/11/04 01:19:36;;;;;;;2.72;0.90;;;10.60;99.90;;;;;;4857134;29;20049;-85
2022/11/04 01:22:08;;;;;;;2.65;0.60;;;10.60;99.90;;;;;;4873924;29;20397;-85
2022/11/04 01:24:36;;;;;;;1.00;0.47;;;10.60;99.90;;;;;;4874144;29;20045;-84
2022/11/04 01:27:13;;;;;;;1.63;0.80;;;10.50;99.90;;;;;;4858810;29;20165;-84
2022/11/04 01:29:54;;;;;;;3.50;0.60;;;10.60;99.90;;;;;;4857928;29;20057;-84
2022/11/04 01:32:20;;;;;;;1.77;0.60;;;10.50;99.90;;;;;;4857831;29;20057;-84
2022/11/04 01:34:57;;;;;;;1.40;0.40;;;10.40;99.90;;;;;;4857578;29;20057;-85
2022/11/04 01:37:22;;;;;;;4.45;0.47;;;10.40;99.90;;;;;;4873416;29;20053;-84
2022/11/04 01:39:48;;;;;;;2.95;0.45;;;10.50;99.90;;;;;;4858235;29;20056;-84
2022/11/04 01:42:14;;;;;;;3.17;0.50;;;10.30;99.90;;;;;;4873151;29;20536;-84
2022/11/04 01:44:40;;;;;;;3.45;0.55;;;10.40;99.90;;;;;;4873535;29;20060;-84
2022/11/04 01:47:15;;;;;;;1.70;0.30;;;10.60;99.90;;;;;;4873654;29;20105;-84
2022/11/04 01:49:43;;;;;;;0.88;0.30;;;10.40;99.90;;;;;;4873215;29;20049;-84
2022/11/04 01:52:15;;;;;;;3.13;0.60;;;10.70;99.90;;;;;;4858403;29;20080;-85
2022/11/04 01:54:42;;;;;;;2.17;0.40;;;10.70;99.90;;;;;;4872642;29;20046;-85
2022/11/04 01:57:13;;;;;;;3.95;0.47;;;10.90;99.90;;;;;;4858429;29;20056;-84
2022/11/04 01:59:40;;;;;;;6.90;1.10;;;10.40;99.90;;;;;;4873013;29;20486;-85
2022/11/04 02:02:06;;;;;;;2.08;0.60;;;10.50;99.90;;;;;;4873237;29;20061;-85
2022/11/04 02:04:48;;;;;;;1.95;0.68;;;10.40;99.90;;;;;;4857478;29;20159;-85
2022/11/04 02:07:13;;;;;;;4.38;0.93;;;10.30;99.90;;;;;;4858496;29;20140;-85
2022/11/04 02:09:51;;;;;;;1.80;0.50;;;10.40;99.90;;;;;;4856590;29;20133;-84
2022/11/04 02:15:29;;;;;;;4.75;0.70;;;9.60;99.90;;;;;;4873421;29;20068;-85
2022/11/04 02:18:23;;;;;;;5.10;0.50;;;10.40;99.90;;;;;;4857803;29;20045;-85
2022/11/04 02:21:23;;;;;;;3.80;0.50;;;10.30;99.90;;;;;;4857030;29;20112;-85
2022/11/04 02:24:00;;;;;;;3.78;0.32;;;10.50;99.90;;;;;;4856802;29;20060;-84
2022/11/04 02:26:47;;;;;;;6.47;0.63;;;10.30;99.90;;;;;;4873756;29;20053;-85
2022/11/04 02:29:55;;;;;;;5.78;0.68;;;10.40;99.90;;;;;;4872531;29;20157;-84
2022/11/04 02:32:36;;;;;;;6.38;0.60;;;10.50;99.90;;;;;;4872799;29;20061;-84
2022/11/04 02:35:38;;;;;;;5.45;0.52;;;10.30;99.90;;;;;;4857593;29;20124;-84
2022/11/04 02:38:13;;;;;;;7.18;0.68;;;10.30;99.90;;;;;;4872426;29;20119;-85
2022/11/04 02:40:55;;;;;;;7.55;0.60;;;10.20;99.90;;;;;;4857356;29;20045;-84
2022/11/04 02:43:46;;;;;;;11.35;0.70;;;10.40;99.90;;;;;;4857211;29;20122;-84
2022/11/04 02:46:17;;;;;;;8.85;0.75;;;10.30;99.90;;;;;;4858310;29;20116;-84
2022/11/04 02:48:54;;;;;;;7.78;0.60;;;10.20;99.90;;;;;;4875276;29;20057;-84
2022/11/04 02:51:52;;;;;;;10.30;0.93;;;10.10;99.90;;;;;;4875926;29;20502;-84
2022/11/04 02:54:28;;;;;;;10.43;1.25;;;10.10;99.90;;;;;;4876497;29;20091;-84
2022/11/04 02:56:58;;;;;;;5.25;0.50;;;10.40;99.90;;;;;;4876321;29;20139;-85
2022/11/04 02:59:34;;;;;;;10.00;0.50;;;10.50;99.90;;;;;;4860273;29;20064;-84
2022/11/04 03:02:04;;;;;;;7.97;0.60;;;10.00;99.90;;;;;;4876415;29;20108;-85
2022/11/04 03:04:47;;;;;;;4.43;0.55;;;10.50;99.90;;;;;;4874589;29;20576;-84
2022/11/04 03:07:23;;;;;;;10.98;0.70;;;10.00;99.90;;;;;;4860461;29;20113;-84
2022/11/04 03:09:55;;;;;;;13.15;1.02;;;10.70;99.90;;;;;;4861042;29;20140;-84
2022/11/04 03:13:01;;;;;;;4.65;0.45;;;9.90;99.90;;;;;;4860240;29;20049;-84
2022/11/04 03:15:52;;;;;;;11.52;1.50;;;9.90;99.90;;;;;;4861421;29;20057;-84
2022/11/04 03:18:53;;;;;;;12.05;1.33;;;10.10;99.90;;;;;;4860339;29;20435;-85
2022/11/04 03:21:21;;;;;;;14.32;0.70;;;10.00;99.90;;;;;;4876566;29;20045;-85
2022/11/04 03:24:01;;;;;;;7.32;0.50;;;10.00;99.90;;;;;;4859914;29;20108;-84
2022/11/04 03:26:55;;;;;;;12.52;1.17;;;9.80;99.90;;;;;;4860614;29;20049;-84
2022/11/04 03:29:42;;;;;;;;;;;;;;;;;;;;;
2022/11/04 03:32:58;;;;;;;12.23;1.70;;;10.70;99.90;;;;;;4894465;29;20123;-85
2022/11/04 03:35:30;;;;;;;6.32;1.48;;;10.10;99.90;;;;;;4856585;29;20131;-84
2022/11/04 03:38:01;;;;;;;8.25;1.42;;;10.30;99.90;;;;;;4878678;29;20553;-84
2022/11/04 03:40:28;;;;;;;9.85;1.08;;;10.20;99.90;;;;;;4863094;29;20084;-85
2022/11/04 03:43:18;;;;;;;3.15;0.60;;;10.50;99.90;;;;;;4862697;29;20241;-84
2022/11/04 03:45:56;;;;;;;6.95;0.50;;;10.20;99.90;;;;;;4878260;29;20520;-85
2022/11/04 03:48:27;;;;;;;8.77;0.88;;;9.90;99.90;;;;;;4877781;29;20060;-84
2022/11/04 03:51:12;;;;;;;6.95;0.80;;;10.20;99.90;;;;;;4901789;23;20140;-85
2022/11/04 03:54:04;;;;;;;9.52;0.85;;;10.70;99.90;;;;;;4890456;29;20055;-84
2022/11/04 03:57:14;;;;;;;10.02;1.00;;;10.20;99.90;;;;;;4860067;29;20075;-85
2022/11/04 04:00:09;;;;;;;4.65;0.70;;;10.10;99.90;;;;;;4858577;29;20056;-84
2022/11/04 04:03:04;;;;;;;9.07;0.88;;;10.10;99.90;;;;;;4858314;29;20135;-85
2022/11/04 04:06:04;;;;;;;6.22;1.20;;;10.30;99.90;;;;;;4860096;29;20045;-85
2022/11/04 04:08:59;;;;;;;7.30;1.08;;;9.90;99.90;;;;;;4858624;29;20136;-85
2022/11/04 04:11:59;;;;;;;5.78;0.98;;;10.20;99.90;;;;;;4860159;29;20186;-85
2022/11/04 04:14:44;;;;;;;7.90;0.90;;;10.20;99.90;;;;;;4891006;29;20068;-85
2022/11/04 04:17:31;;;;;;;7.13;1.00;;;10.10;99.90;;;;;;4890590;29;20051;-85
2022/11/04 04:20:00;;;;;;;8.88;0.85;;;10.20;99.90;;;;;;4875155;29;20192;-84
2022/11/04 04:22:29;;;;;;;7.15;1.23;;;10.20;99.90;;;;;;4874306;29;20101;-84
2022/11/04 04:31:50;;;;;;;22.95;2.22;;;10.40;99.90;;;;;;4853933;29;20057;-84
2022/11/04 04:34:22;;;;;;;15.93;1.90;;;10.20;99.90;;;;;;4870469;29;20152;-84
2022/11/04 04:37:12;;;;;;;8.68;1.23;;;10.30;99.90;;;;;;4871305;29;20037;-84
2022/11/04 04:45:39;;;;;;;5.22;1.08;;;10.20;99.90;;;;;;4872267;29;20060;-84
2022/11/04 04:48:07;;;;;;;7.47;1.10;;;10.10;99.90;;;;;;4870480;29;20081;-84
2022/11/04 04:50:44;;;;;;;4.55;0.88;;;11.00;99.90;;;;;;4880850;29;20136;-84
2022/11/04 04:53:10;;;;;;;7.55;0.90;;;10.30;99.90;;;;;;4856049;29;20053;-84
2022/11/04 04:55:36;;;;;;;5.70;0.80;;;10.10;99.90;;;;;;4855608;29;20098;-83
2022/11/04 04:58:04;;;;;;;5.07;0.80;;;10.20;99.90;;;;;;4854533;29;20062;-83
2022/11/04 05:00:33;;;;;;;4.55;0.60;;;10.00;99.90;;;;;;4840050;29;20112;-83
2022/11/04 05:03:11;;;;;;;8.00;0.82;;;10.20;99.90;;;;;;4854626;29;20455;-84
2022/11/04 05:05:39;;;;;;;5.13;1.00;;;9.50;99.90;;;;;;4854574;29;20053;-84
2022/11/04 05:08:11;;;;;;;4.30;0.70;;;10.10;99.90;;;;;;4870929;29;20144;-84
2022/11/04 05:10:40;;;;;;;8.18;0.70;;;9.90;99.90;;;;;;4870670;29;20059;-83
2022/11/04 05:13:28;;;;;;;3.95;0.57;;;9.90;99.90;;;;;;4870036;29;20064;-84
2022/11/04 05:15:54;;;;;;;7.65;0.65;;;9.90;99.90;;;;;;4855084;29;20065;-84
2022/11/04 05:18:20;;;;;;;2.88;0.35;;;9.80;99.90;;;;;;4868725;29;20053;-84
2022/11/04 05:20:45;;;;;;;3.92;0.40;;;9.90;99.90;;;;;;4855032;29;20045;-84
2022/11/04 05:23:12;;;;;;;8.48;0.80;;;9.70;99.90;;;;;;4880290;29;20092;-84
2022/11/04 05:25:40;;;;;;;3.53;0.45;;;10.00;99.90;;;;;;4903346;29;20144;-84
2022/11/04 05:28:08;;;;;;;4.03;0.57;;;9.50;99.90;;;;;;4857177;29;20073;-84
2022/11/04 05:30:34;;;;;;;7.88;0.90;;;10.00;99.90;;;;;;4873311;29;20402;-84
2022/11/04 05:33:05;;;;;;;3.05;0.80;;;9.50;99.90;;;;;;4872144;29;20129;-85
2022/11/04 05:35:31;;;;;;;3.88;0.65;;;9.60;99.90;;;;;;4873647;29;20546;-84
2022/11/04 05:37:56;;;;;;;6.05;0.55;;;9.50;99.90;;;;;;4857750;29;20049;-84
2022/11/04 05:40:23;;;;;;;7.03;0.70;;;10.20;99.90;;;;;;4857132;29;20056;-84
2022/11/04 05:42:49;;;;;;;7.30;0.77;;;9.50;99.90;;;;;;4872609;29;20509;-84
2022/11/04 05:45:23;;;;;;;7.63;1.20;;;9.70;99.90;;;;;;4857470;29;20056;-85
2022/11/04 05:48:40;;;;;;;2.63;0.40;;;9.50;99.90;;;;;;4903416;29;20065;-84
2022/11/04 05:51:20;;;;;;;7.57;0.60;;;9.80;99.90;;;;;;4875238;29;20517;-84
2022/11/04 05:53:46;;;;;;;3.13;0.60;;;9.40;99.90;;;;;;4869974;29;20410;-84
2022/11/04 05:56:26;;;;;;;3.92;0.70;;;9.50;99.90;;;;;;4873414;29;20049;-84
2022/11/04 05:58:52;;;;;;;7.55;0.63;;;10.00;99.90;;;;;;4872495;29;20049;-84
2022/11/04 06:01:30;;;;;;;4.97;0.50;;;9.30;99.90;;;;;;4872551;29;20076;-84
2022/11/04 06:04:00;;;;;;;7.78;0.98;;;9.40;99.90;;;;;;4856744;29;20063;-84
2022/11/04 06:06:29;;;;;;;1.85;0.40;;;9.20;99.90;;;;;;4901326;24;20084;-85
2022/11/04 06:08:57;;;;;;;2.92;0.55;;;9.10;99.90;;;;;;4891152;29;20060;-85
2022/11/04 06:11:24;;;;;;;10.35;0.80;;;9.30;99.90;;;;;;4891102;29;20059;-84
2022/11/04 06:13:50;;;;;;;6.75;0.98;;;9.10;99.90;;;;;;4891607;29;20097;-85
2022/11/04 06:16:35;;;;;;;4.97;0.55;;;9.10;99.90;;;;;;4876150;29;20180;-85
2022/11/04 06:19:33;;;;;;;7.32;0.70;;;9.20;99.90;;;;;;4874893;29;20135;-85
2022/11/04 06:22:02;;;;;;;4.55;0.60;;;9.30;99.90;;;;;;4876154;29;20060;-85
2022/11/04 06:24:31;;;;;;;1.95;0.30;;;9.20;99.90;;;;;;4856495;23;20585;-85
2022/11/04 06:26:57;;;;;;;5.35;0.80;;;9.80;99.90;;;;;;4846109;29;20490;-85
2022/11/04 06:29:22;;;;;;;8.05;0.82;;;9.30;99.90;;;;;;4846987;29;20044;-85
2022/11/04 06:31:48;;;;;;;5.53;0.75;;;9.30;99.90;;;;;;4863459;29;20044;-84
2022/11/04 06:34:20;;;;;;;8.43;0.82;;;9.30;99.90;;;;;;4863187;29;20151;-85
2022/11/04 06:36:49;;;;;;;4.93;0.60;;;9.30;99.90;;;;;;4859850;29;20051;-85
2022/11/04 06:39:17;;;;;;;6.57;0.88;;;9.20;99.90;;;;;;4845383;29;20049;-85
2022/11/04 06:41:45;;;;;;;5.25;0.85;;;9.90;99.90;;;;;;4848132;29;20049;-84
2022/11/04 06:44:11;;;;;;;4.45;0.75;;;8.80;99.90;;;;;;4849897;29;20541;-85
2022/11/04 06:47:01;;;;;;;8.32;0.90;;;9.00;99.90;;;;;;4894080;29;20044;-85
2022/11/04 06:49:35;;;;;;;2.97;0.68;;;8.90;99.90;;;;;;4878389;29;20060;-84
2022/11/04 06:52:04;;;;;;;6.95;0.65;;;9.00;99.90;;;;;;4863336;29;20045;-85
2022/11/04 06:54:30;;;;;;;6.38;0.70;;;9.30;99.90;;;;;;4846845;29;20068;-85
2022/11/04 06:56:56;;;;;;;6.80;0.98;;;8.80;99.90;;;;;;4856701;29;20647;-84
2022/11/04 06:59:22;;;;;;;6.05;1.17;;;8.80;99.90;;;;;;4868540;29;20088;-84
2022/11/04 07:01:49;;;;;;;7.75;1.25;;;8.70;99.90;;;;;;4864095;29;20104;-84
2022/11/04 07:04:41;;;;;;;6.57;1.00;;;8.80;99.90;;;;;;4844542;29;20051;-85
2022/11/04 07:07:10;;;;;;;5.35;0.90;;;8.90;99.90;;;;;;4854701;29;20065;-85
2022/11/04 07:09:38;;;;;;;4.18;0.93;;;8.80;99.90;;;;;;4826972;29;20083;-85
2022/11/04 07:12:07;;;;;;;7.07;1.02;;;8.70;99.90;;;;;;4826344;29;20045;-84
2022/11/04 07:14:48;;;;;;;7.55;1.40;;;9.20;99.90;;;;;;4841996;29;20160;-85
2022/11/04 07:17:13;;;;;;;6.40;1.38;;;9.10;99.90;;;;;;4842656;29;20113;-85
2022/11/04 07:19:39;;;;;;;11.20;1.70;;;9.20;99.90;;;;;;4840494;29;20049;-83
2022/11/04 07:22:10;;;;;;;9.07;1.77;;;9.30;99.90;;;;;;4826317;29;20402;-85
2022/11/04 07:24:45;;;;;;;7.30;1.88;;;9.20;99.90;;;;;;4842428;29;20136;-84
2022/11/04 07:27:11;;;;;;;9.40;1.40;;;9.00;99.90;;;;;;4842231;29;20185;-84
2022/11/04 07:29:37;;;;;;;3.38;1.10;;;9.30;99.90;;;;;;4826470;29;20387;-84
2022/11/04 07:32:03;;;;;;;6.95;1.40;;;9.30;99.90;;;;;;4855776;29;20045;-84
2022/11/04 07:34:29;;;;;;;8.90;1.65;;;9.10;99.90;;;;;;4840067;29;20057;-84
2022/11/04 07:36:54;;;;;;;5.68;1.10;;;9.00;99.90;;;;;;4826329;29;20054;-85
2022/11/04 07:39:23;;;;;;;7.22;1.60;;;9.10;99.90;;;;;;4841814;29;21001;-84
2022/11/04 07:41:48;;;;;;;6.00;1.25;;;9.00;99.90;;;;;;4841271;29;20408;-84
2022/11/04 07:44:17;;;;;;;5.57;1.20;;;9.00;99.90;;;;;;4826482;29;20049;-84
2022/11/04 07:46:43;;;;;;;11.35;1.80;;;9.00;99.90;;;;;;4825678;29;20049;-84
2022/11/04 07:49:08;;;;;;;6.10;2.00;;;9.00;99.90;;;;;;4855783;29;20041;-85
2022/11/04 07:51:49;;;;;;;7.07;2.00;;;9.50;99.90;;;;;;4841410;29;20049;-84
2022/11/04 07:54:17;;;;;;;8.45;1.98;;;9.00;99.90;;;;;;4840566;29;20391;-85
2022/11/04 07:56:43;;;;;;;5.53;2.03;;;9.10;99.90;;;;;;4825827;29;20387;-84
2022/11/04 07:59:10;;;;;;;8.45;1.85;;;9.00;99.90;;;;;;4826712;29;20057;-84
2022/11/04 08:01:54;;;;;;;6.38;1.60;;;9.00;99.90;;;;;;4825292;29;20075;-84
2022/11/04 08:04:19;;;;;;;5.32;1.30;;;9.10;99.90;;;;;;4848856;29;20052;-84
2022/11/04 08:06:50;;;;;;;3.50;1.00;;;9.10;99.90;;;;;;4856808;29;20190;-84
2022/11/04 08:09:19;;;;;;;4.45;1.30;;;9.20;99.90;;;;;;4844343;29;20050;-84
2022/11/04 08:11:47;;;;;;;6.20;1.55;;;9.10;99.90;;;;;;4864200;29;20049;-84
2022/11/04 08:14:13;;;;;;;5.10;1.30;;;9.20;99.90;;;;;;4874080;29;20097;-84
2022/11/04 08:16:42;;;;;;;4.05;1.20;;;9.30;99.90;;;;;;4859025;29;20088;-84
2022/11/04 08:19:14;;;;;;;8.43;1.50;;;10.20;99.90;;;;;;4858708;29;20080;-84
2022/11/04 08:21:53;;;;;;;6.03;1.67;;;9.30;99.90;;;;;;4858002;29;20047;-84
2022/11/04 08:24:51;;;;;;;7.82;2.05;;;9.30;99.90;;;;;;4876998;29;20068;-87
2022/11/04 08:27:16;;;;;;;7.63;2.00;;;9.50;99.90;;;;;;4846315;29;20490;-84
2022/11/04 08:29:51;;;;;;;7.20;1.25;;;9.50;99.90;;;;;;4850147;29;20059;-84
2022/11/04 08:32:17;;;;;;;7.75;1.20;;;10.40;99.90;;;;;;4865056;29;20096;-83
2022/11/04 08:34:44;;;;;;;7.45;1.30;;;9.60;99.90;;;;;;4858912;29;20055;-84
2022/11/04 08:37:14;;;;;;;6.25;1.30;;;9.50;99.90;;;;;;4884365;29;20119;-84
2022/11/04 08:39:40;;;;;;;9.27;1.60;;;9.70;99.90;;;;;;4887825;29;20526;-84
2022/11/04 08:42:06;;;;;;;4.13;1.13;;;9.90;99.90;;;;;;4873867;29;20064;-84
2022/11/04 08:44:32;;;;;;;4.55;1.30;;;9.70;99.90;;;;;;4872734;29;20457;-84
2022/11/04 08:46:59;;;;;;;8.45;1.25;;;9.90;99.90;;;;;;4859234;29;20049;-84
2022/11/04 08:49:25;;;;;;;5.30;1.20;;;9.80;99.90;;;;;;4872871;29;20044;-84
2022/11/04 08:51:58;;;;;;;7.72;1.33;;;9.90;99.90;;;;;;4874320;29;20049;-84
2022/11/04 08:54:25;;;;;;;7.80;1.42;;;9.70;99.90;;;;;;4873591;29;20497;-84
2022/11/04 08:56:50;;;;;;;4.57;1.05;;;10.00;99.90;;;;;;4888403;29;20512;-84
2022/11/04 08:59:16;;;;;;;6.00;1.20;;;10.20;99.90;;;;;;4873276;29;20056;-84
2022/11/04 09:01:43;;;;;;;3.65;0.88;;;10.20;99.90;;;;;;4873807;29;20052;-84
2022/11/04 09:04:11;;;;;;;6.88;1.13;;;10.20;99.90;;;;;;4872382;29;20498;-84
2022/11/04 09:06:39;;;;;;;6.63;1.67;;;10.30;99.90;;;;;;4858449;29;20048;-84
2022/11/04 09:09:10;;;;;;;6.13;0.90;;;10.70;99.90;;;;;;4889746;29;20163;-84
2022/11/04 09:11:43;;;;;;;4.70;0.90;;;11.10;99.90;;;;;;4850924;29;20042;-84
2022/11/04 09:14:10;;;;;;;4.57;1.13;;;10.30;99.90;;;;;;4839310;29;20056;-84
2022/11/04 09:16:40;;;;;;;8.63;0.90;;;10.60;99.90;;;;;;4855003;29;20062;-84
2022/11/04 09:19:12;;;;;;;4.78;1.05;;;10.70;99.90;;;;;;4838217;29;20049;-84
2022/11/04 09:21:47;;;;;;;3.67;0.75;;;11.60;99.90;;;;;;4839447;29;20049;-84
2022/11/04 09:24:12;;;;;;;7.25;0.70;;;10.70;99.90;;;;;;4855048;29;20066;-83
2022/11/04 09:27:29;;;;;;;5.25;1.00;;;10.70;99.90;;;;;;4854170;29;20042;-84
2022/11/04 09:29:54;;;;;;;4.78;0.57;;;10.70;99.90;;;;;;4854321;29;20056;-83
2022/11/04 09:32:20;;;;;;;1.90;0.40;;;10.90;99.90;;;;;;4853678;29;20054;-84
2022/11/04 09:34:46;;;;;;;5.63;0.65;;;10.90;99.90;;;;;;4854569;29;20045;-84
2022/11/04 09:37:12;;;;;;;7.90;1.02;;;10.80;99.90;;;;;;4854133;29;20141;-84
2022/11/04 09:39:40;;;;;;;10.23;0.90;;;11.00;99.90;;;;;;4838471;29;20148;-84
2022/11/04 09:42:46;;;;;;;4.78;0.70;;;11.10;99.90;;;;;;4855084;29;20045;-84
2022/11/04 09:45:17;;;;;;;6.03;0.60;;;11.00;99.90;;;;;;4838869;29;20065;-84
2022/11/04 09:47:46;;;;;;;6.07;1.02;;;11.40;99.90;;;;;;4837630;29;20541;-84
2022/11/04 09:50:41;;;;;;;6.03;0.70;;;11.20;99.90;;;;;;4838826;29;20513;-83
2022/11/04 09:53:18;;;;;;;7.65;0.90;;;11.40;99.90;;;;;;4839089;29;20060;-84
2022/11/04 09:56:08;;;;;;;5.03;0.90;;;11.60;99.90;;;;;;4854416;29;20440;-84
2022/11/04 09:58:39;;;;;;;5.82;0.82;;;11.70;99.90;;;;;;4839330;29;20055;-83
2022/11/04 10:01:38;;;;;;;8.48;1.10;;;11.90;99.90;;;;;;4853968;29;20049;-84
2022/11/04 10:04:35;;;;;;;10.50;1.25;;;11.60;99.90;;;;;;4838292;29;20057;-84
2022/11/04 10:07:34;;;;;;;3.17;0.73;;;11.90;99.90;;;;;;4854318;29;20415;-85
2022/11/04 10:10:57;;;;;;;4.75;0.80;;;12.20;99.90;;;;;;4839167;29;20128;-85
2022/11/04 10:14:20;;;;;;;6.47;0.70;;;12.20;99.90;;;;;;4853968;29;20175;-85
2022/11/04 10:17:42;;;;;;;;;;;;;;;;;;;;;
2022/11/04 10:20:45;;;;;;;7.25;1.10;;;12.20;99.90;;;;;;4854076;29;20053;-85
2022/11/04 10:26:27;;;;;;;5.55;0.73;;;12.70;99.90;;;;;;4784295;27;20085;-85
2022/11/04 10:33:33;;;;;;;6.07;1.00;;;12.80;99.90;;;;;;4877107;29;20050;-85
2022/11/04 10:36:04;;;;;;;8.10;1.20;;;12.80;99.90;;;;;;4853078;29;20058;-85
2022/11/04 10:38:54;;;;;;;3.28;0.47;;;12.80;99.90;;;;;;4845997;29;20061;-85
2022/11/04 10:41:57;;;;;;;7.38;1.15;;;12.70;99.90;;;;;;4860821;29;20100;-85
2022/11/04 10:44:38;;;;;;;6.32;0.80;;;12.60;99.90;;;;;;4853249;29;20064;-86
2022/11/04 10:47:50;;;;;;;;;;;;;;;;;;;;;
2022/11/04 10:51:21;;;;;;;;;;;;;;;;;;;;;
2022/11/04 10:53:57;;;;;;;5.45;0.95;;;12.20;99.90;;;;;;4834843;29;20079;-87
2022/11/04 11:02:50;;;;;;;9.85;1.27;;;12.70;99.90;;;;;;4908769;29;20064;-85
2022/11/04 11:05:24;;;;;;;5.93;1.23;;;12.60;99.90;;;;;;4894761;29;20424;-86
2022/11/04 11:07:59;;;;;;;7.40;1.17;;;12.60;99.90;;;;;;4879242;29;20052;-86
2022/11/04 11:10:30;;;;;;;10.32;1.35;;;12.40;99.90;;;;;;4882365;29;20060;-86
2022/11/04 11:13:00;;;;;;;9.50;1.00;;;12.60;99.90;;;;;;4882200;29;20093;-84
2022/11/04 11:15:29;;;;;;;8.75;1.40;;;12.50;99.90;;;;;;4898197;29;20119;-84
2022/11/04 11:18:05;;;;;;;6.72;1.17;;;12.50;99.90;;;;;;4895240;29;20048;-85
2022/11/04 11:20:33;;;;;;;9.20;1.40;;;12.60;99.90;;;;;;4898015;29;20098;-85
2022/11/04 11:23:00;;;;;;;7.03;0.95;;;12.70;99.90;;;;;;4880954;29;20047;-85
2022/11/04 11:25:29;;;;;;;7.88;1.05;;;12.70;99.90;;;;;;4881496;29;20044;-85
2022/11/04 11:28:05;;;;;;;9.98;1.40;;;12.70;99.90;;;;;;4897113;29;20078;-85
2022/11/04 11:30:42;;;;;;;5.88;1.30;;;12.70;99.90;;;;;;4897340;29;20060;-85
2022/11/04 11:33:19;;;;;;;10.02;1.38;;;12.70;99.90;;;;;;4880726;29;20405;-85
2022/11/04 11:35:57;;;;;;;7.88;1.10;;;12.70;99.90;;;;;;4896694;29;20051;-85
2022/11/04 11:38:27;;;;;;;10.82;1.27;;;12.80;99.90;;;;;;4880976;29;20099;-85
2022/11/04 11:41:05;;;;;;;9.73;1.10;;;12.80;99.90;;;;;;4865179;29;20052;-85
2022/11/04 11:43:34;;;;;;;12.07;1.15;;;12.80;99.90;;;;;;4862640;29;20100;-85
2022/11/04 11:46:00;;;;;;;11.00;1.45;;;12.80;99.90;;;;;;4861951;29;20469;-85
2022/11/04 11:48:37;;;;;;;7.68;1.25;;;12.80;99.90;;;;;;4877987;29;20519;-85
2022/11/04 11:51:13;;;;;;;9.65;1.42;;;12.70;99.90;;;;;;4893907;29;20143;-85
2022/11/04 11:53:56;;;;;;;5.90;0.85;;;12.50;99.90;;;;;;4861612;29;20055;-85
2022/11/04 11:56:25;;;;;;;4.85;0.75;;;12.40;99.90;;;;;;4862932;29;20048;-85
2022/11/04 11:59:14;;;;;;;4.07;0.80;;;12.20;99.90;;;;;;4862519;29;20052;-85
2022/11/04 12:01:45;;;;;;;7.32;1.55;;;11.90;99.90;;;;;;4876931;29;20071;-84
2022/11/04 12:04:12;;;;;;;5.95;0.80;;;11.60;99.90;;;;;;4862122;29;20468;-85
2022/11/04 12:06:47;;;;;;;6.95;0.80;;;11.40;99.90;;;;;;4861668;29;20084;-85
2022/11/04 12:09:27;;;;;;;7.35;1.08;;;11.20;99.90;;;;;;4862984;29;20056;-85
2022/11/04 12:12:00;;;;;;;4.97;0.80;;;11.00;99.90;;;;;;4862752;29;20560;-85
2022/11/04 12:14:39;;;;;;;7.03;0.70;;;11.00;99.90;;;;;;4862259;29;20055;-85
2022/11/04 12:17:41;;;;;;;5.90;0.80;;;11.00;99.90;;;;;;4863549;29;20067;-85
2022/11/04 12:20:48;;;;;;;5.10;0.80;;;11.10;99.90;;;;;;4877524;29;20049;-85
2022/11/04 12:23:23;;;;;;;5.53;0.70;;;11.20;99.90;;;;;;4878157;29;20056;-86
2022/11/04 12:26:13;;;;;;;4.85;1.00;;;11.50;99.90;;;;;;4863158;29;20461;-85
2022/11/04 12:28:54;;;;;;;4.90;0.60;;;11.30;99.90;;;;;;4876968;29;20143;-85
2022/11/04 12:31:25;;;;;;;8.02;1.27;;;11.40;99.90;;;;;;4894073;29;20051;-85
2022/11/04 12:34:08;;;;;;;6.38;1.30;;;11.40;99.90;;;;;;4876978;29;20159;-85
2022/11/04 12:37:08;;;;;;;8.75;1.20;;;11.20;99.90;;;;;;4862394;29;20056;-85
2022/11/04 12:40:03;;;;;;;6.85;0.90;;;11.30;99.90;;;;;;4877519;29;20053;-85
2022/11/04 12:42:29;;;;;;;8.18;1.23;;;11.30;99.90;;;;;;4861539;29;20091;-84
2022/11/04 12:45:07;;;;;;;6.40;1.00;;;11.30;99.90;;;;;;4861530;29;20055;-85
2022/11/04 12:47:41;;;;;;;5.93;0.90;;;11.30;99.90;;;;;;4860994;29;20082;-85
2022/11/04 12:50:29;;;;;;;5.63;0.90;;;11.30;99.90;;;;;;4861302;29;20056;-85
2022/11/04 12:53:24;;;;;;;5.22;0.75;;;11.30;99.90;;;;;;4876733;29;20056;-85
2022/11/04 12:56:15;;;;;;;4.60;0.90;;;11.40;99.90;;;;;;4876193;29;20548;-85
2022/11/04 12:59:08;;;;;;;7.68;1.48;;;11.40;99.90;;;;;;4861984;29;20112;-85
2022/11/04 13:01:55;;;;;;;7.13;1.27;;;11.40;99.90;;;;;;4861193;29;20060;-85
2022/11/04 13:04:31;;;;;;;6.05;0.98;;;11.40;99.90;;;;;;4891992;29;20119;-85
2022/11/04 13:07:03;;;;;;;8.43;1.35;;;11.40;99.90;;;;;;4876908;29;20616;-85
2022/11/04 13:09:52;;;;;;;7.82;1.13;;;11.50;99.90;;;;;;4892042;29;20408;-85
2022/11/04 13:12:26;;;;;;;6.57;1.20;;;11.50;99.90;;;;;;4876811;29;20053;-85
2022/11/04 13:15:12;;;;;;;5.43;1.08;;;11.50;99.90;;;;;;4877078;29;20056;-85
2022/11/04 13:17:46;;;;;;;11.70;1.30;;;11.40;99.90;;;;;;4891155;29;20080;-85
2022/11/04 13:20:31;;;;;;;11.30;1.33;;;11.70;99.90;;;;;;4892829;29;20088;-85
2022/11/04 13:23:01;;;;;;;8.27;1.35;;;11.90;99.90;;;;;;4876574;29;20585;-85
2022/11/04 13:25:32;;;;;;;12.70;1.58;;;12.00;99.90;;;;;;4876209;29;20526;-86
2022/11/04 13:27:59;;;;;;;9.65;1.50;;;12.10;99.90;;;;;;4876962;29;20131;-86
2022/11/04 13:30:44;;;;;;;8.68;1.58;;;12.20;99.90;;;;;;4876817;29;20063;-86
2022/11/04 13:33:32;;;;;;;11.57;1.17;;;12.20;99.90;;;;;;4859978;29;20060;-86
2022/11/04 13:36:04;;;;;;;10.63;1.55;;;12.30;99.90;;;;;;4876809;29;20045;-86
2022/11/04 13:38:39;;;;;;;9.13;1.40;;;12.30;99.90;;;;;;4890850;29;20520;-85
2022/11/04 13:41:16;;;;;;;10.15;1.50;;;12.30;99.90;;;;;;4892974;29;20045;-86
2022/11/04 13:43:59;;;;;;;7.63;1.10;;;12.30;99.90;;;;;;4876072;29;20052;-85
2022/11/04 13:46:33;;;;;;;9.30;1.37;;;11.90;99.90;;;;;;4876080;29;20489;-86
2022/11/04 13:49:01;;;;;;;8.00;1.60;;;12.30;99.90;;;;;;4875864;29;20705;-85
2022/11/04 13:51:37;;;;;;;10.30;2.42;;;12.30;99.90;;;;;;4887266;29;20041;-85
2022/11/04 13:54:23;;;;;;;8.13;1.40;;;12.40;99.90;;;;;;4876030;29;20056;-85
2022/11/04 13:56:48;;;;;;;10.90;1.40;;;12.20;99.90;;;;;;4876004;29;20087;-85
2022/11/04 13:59:27;;;;;;;8.35;0.90;;;12.40;99.90;;;;;;4891021;29;20091;-85
2022/11/04 14:02:19;;;;;;;11.18;1.08;;;12.30;99.90;;;;;;4891372;29;20076;-85
2022/11/04 14:04:46;;;;;;;11.43;1.40;;;12.10;99.90;;;;;;4891102;29;20060;-85
2022/11/04 14:07:16;;;;;;;10.43;1.40;;;12.10;99.90;;;;;;4891287;29;20053;-85
2022/11/04 14:09:42;;;;;;;15.82;1.55;;;12.00;99.90;;;;;;4860526;29;20059;-85
2022/11/04 14:12:13;;;;;;;10.20;1.23;;;12.00;99.90;;;;;;4876534;29;20052;-85
2022/11/04 14:14:44;;;;;;;10.63;1.25;;;12.00;99.90;;;;;;4875380;29;20131;-85
2022/11/04 14:17:32;;;;;;;11.27;1.10;;;11.90;99.90;;;;;;4892335;29;20446;-85
2022/11/04 14:20:04;;;;;;;10.98;1.40;;;11.90;99.90;;;;;;4875439;29;20100;-85
2022/11/04 14:22:53;;;;;;;11.93;1.45;;;11.90;99.90;;;;;;4876729;29;20052;-85
2022/11/04 14:25:21;;;;;;;10.20;1.35;;;11.80;99.90;;;;;;4892264;29;20056;-85
2022/11/04 14:27:50;;;;;;;6.68;1.10;;;11.80;99.90;;;;;;4875173;29;20515;-85
2022/11/04 14:30:43;;;;;;;9.63;1.70;;;11.80;99.90;;;;;;4892251;29;20051;-85